地図

経路データ

SID SEASON NUMBER BASIN SUBBASIN NAME ISO_TIME NATURE LAT LON WMO_WIND WMO_PRES WMO_AGENCY TRACK_TYPE DIST2LAND LANDFALL IFLAG USA_AGENCY USA_ATCF_ID USA_LAT USA_LON USA_RECORD USA_STATUS USA_WIND USA_PRES USA_SSHS USA_R34_NE USA_R34_SE USA_R34_SW USA_R34_NW USA_R50_NE USA_R50_SE USA_R50_SW USA_R50_NW USA_R64_NE USA_R64_SE USA_R64_SW USA_R64_NW USA_POCI USA_ROCI USA_RMW USA_EYE TOKYO_LAT TOKYO_LON TOKYO_GRADE TOKYO_WIND TOKYO_PRES TOKYO_R50_DIR TOKYO_R50_LONG TOKYO_R50_SHORT TOKYO_R30_DIR TOKYO_R30_LONG TOKYO_R30_SHORT TOKYO_LAND CMA_LAT CMA_LON CMA_CAT CMA_WIND CMA_PRES HKO_LAT HKO_LON HKO_CAT HKO_WIND HKO_PRES NEWDELHI_LAT NEWDELHI_LON NEWDELHI_GRADE NEWDELHI_WIND NEWDELHI_PRES NEWDELHI_CI NEWDELHI_DP NEWDELHI_POCI REUNION_LAT REUNION_LON REUNION_TYPE REUNION_WIND REUNION_PRES REUNION_TNUM REUNION_CI REUNION_RMW REUNION_R34_NE REUNION_R34_SE REUNION_R34_SW REUNION_R34_NW REUNION_R50_NE REUNION_R50_SE REUNION_R50_SW REUNION_R50_NW REUNION_R64_NE REUNION_R64_SE REUNION_R64_SW REUNION_R64_NW BOM_LAT BOM_LON BOM_TYPE BOM_WIND BOM_PRES BOM_TNUM BOM_CI BOM_RMW BOM_R34_NE BOM_R34_SE BOM_R34_SW BOM_R34_NW BOM_R50_NE BOM_R50_SE BOM_R50_SW BOM_R50_NW BOM_R64_NE BOM_R64_SE BOM_R64_SW BOM_R64_NW BOM_ROCI BOM_POCI BOM_EYE BOM_POS_METHOD BOM_PRES_METHOD NADI_LAT NADI_LON NADI_CAT NADI_WIND NADI_PRES WELLINGTON_LAT WELLINGTON_LON WELLINGTON_WIND WELLINGTON_PRES DS824_LAT DS824_LON DS824_STAGE DS824_WIND DS824_PRES TD9636_LAT TD9636_LON TD9636_STAGE TD9636_WIND TD9636_PRES TD9635_LAT TD9635_LON TD9635_WIND TD9635_PRES TD9635_ROCI NEUMANN_LAT NEUMANN_LON NEUMANN_CLASS NEUMANN_WIND NEUMANN_PRES MLC_LAT MLC_LON MLC_CLASS MLC_WIND MLC_PRES USA_GUST BOM_GUST BOM_GUST_PER REUNION_GUST REUNION_GUST_PER USA_SEAHGT USA_SEARAD_NE USA_SEARAD_SE USA_SEARAD_SW USA_SEARAD_NW STORM_SPEED STORM_DIR
1945211N23129 1945 41 WP MM EVA 1945-07-30 00:00:00 TS 22.5000 128.500 main 708 708 O________OOO__ jtwc_wp WP091945 22.5000 128.500 35 0 22.5000 128.500 TC 35 22.5000 128.500 2 35 22.5000 128.500 35 1001 180 3 128
1945211N23129 1945 41 WP MM EVA 1945-07-30 03:00:00 TS 22.3942 128.649 main 722 722 P________PPP__ WP091945 22.4251 128.670 37 0 22.4251 128.670 TC 37 22.3014 128.585 2 36 22.4251 128.670 37 1000 210 3 134
1945211N23129 1945 41 WP MM EVA 1945-07-30 06:00:00 TS 22.2581 128.771 main 745 745 O________OPO__ jtwc_wp WP091945 22.3000 128.800 40 0 22.3000 128.800 TC 40 22.1323 128.686 2 37 22.3000 128.800 40 999 240 4 147
1945211N23129 1945 41 WP MM EVA 1945-07-30 09:00:00 TS 22.0898 128.863 main 763 763 P________PPP__ WP091945 22.1124 128.878 40 0 22.1124 128.878 TC 40 22.0220 128.819 2 38 22.1124 128.878 40 998 240 3 140
1945211N23129 1945 41 WP MM EVA 1945-07-30 12:00:00 TS 22.0000 129.000 main 776 776 O________OOO__ jtwc_wp WP091945 22.0000 129.000 40 0 22.0000 129.000 TC 40 22.0000 129.000 2 40 22.0000 129.000 40 998 240 4 89
1945211N23129 1945 41 WP MM EVA 1945-07-30 15:00:00 TS 22.0944 129.268 main 801 801 P________PPP__ WP091945 22.0976 129.277 40 0 22.0976 129.277 TC 40 22.0849 129.239 2 40 22.0976 129.277 40 997 210 6 62
1945211N23129 1945 41 WP MM EVA 1945-07-30 18:00:00 TS 22.2882 129.580 main 822 822 O________OPO__ jtwc_wp WP091945 22.3000 129.600 40 0 22.3000 129.600 TC 40 22.2528 129.519 2 40 22.3000 129.600 40 997 180 7 54
1945211N23129 1945 41 WP MM EVA 1945-07-30 21:00:00 TS 22.4866 129.847 main 835 835 P________PPP__ WP091945 22.4924 129.858 40 0 22.4924 129.858 TC 40 22.4693 129.815 2 40 22.4924 129.858 40 996 210 6 49
1945211N23129 1945 41 WP MM EVA 1945-07-31 00:00:00 TS 22.7000 130.100 main 858 858 O________OOO__ jtwc_wp WP091945 22.7000 130.100 40 0 22.7000 130.100 TC 40 22.7000 130.100 2 40 22.7000 130.100 40 996 240 6 49
1945211N23129 1945 41 WP MM EVA 1945-07-31 03:00:00 TS 22.9013 130.364 main 883 880 P________PPP__ WP091945 22.9000 130.358 40 0 22.9000 130.358 TC 40 22.9051 130.384 2 42 22.9000 130.358 40 995 240 6 49
1945211N23129 1945 41 WP MM EVA 1945-07-31 06:00:00 TS 23.1038 130.612 main 882 859 O________OPO__ jtwc_wp WP091945 23.1000 130.600 40 0 23.1000 130.600 TC 40 23.1151 130.647 2 45 23.1000 130.600 40 994 240 6 48
1945211N23129 1945 41 WP MM EVA 1945-07-31 09:00:00 TS 23.3100 130.849 main 859 838 P________PPP__ WP091945 23.3075 130.845 45 0 23.3075 130.845 TC 45 23.3176 130.862 2 47 23.3075 130.845 45 992 240 5 42
1945211N23129 1945 41 WP MM EVA 1945-07-31 12:00:00 TS 23.5000 131.000 main 838 815 O________OOO__ jtwc_wp WP091945 23.5000 131.000 50 0 23.5000 131.000 TC 50 23.5000 131.000 2 50 23.5000 131.000 50 990 240 4 21
1945211N23129 1945 41 WP MM EVA 1945-07-31 15:00:00 TS 23.6603 130.999 main 815 804 P________PPP__ WP091945 23.6650 130.988 55 0 23.6650 130.988 TC 55 23.6464 131.034 2 55 23.6650 130.988 55 987 240 3 347
1945211N23129 1945 41 WP MM EVA 1945-07-31 18:00:00 TS 23.7931 130.923 main 804 793 O________OPO__ jtwc_wp WP091945 23.8000 130.900 60 0 23.8000 130.900 TC 60 23.7723 130.991 2 60 23.8000 130.900 60 984 240 3 334
1945211N23129 1945 41 WP MM EVA 1945-07-31 21:00:00 TS 23.9024 130.869 main 793 781 P________PPP__ WP091945 23.9075 130.857 65 1 23.9075 130.857 TC 65 23.8871 130.902 2 65 23.9075 130.857 65 987 240 2 332
1945211N23129 1945 41 WP MM EVA 1945-08-01 00:00:00 TS 24.0000 130.800 main 781 770 O________OOO__ jtwc_wp WP091945 24.0000 130.800 70 1 24.0000 130.800 TC 70 24.0000 130.800 3 70 24.0000 130.800 70 990 240 2 324
1945211N23129 1945 41 WP MM EVA 1945-08-01 03:00:00 TS 24.1006 130.710 main 770 759 P________PPP__ WP091945 24.0925 130.700 75 1 24.0925 130.700 TC 75 24.1250 130.740 3 70 24.0925 130.700 75 984 210 3 322
1945211N23129 1945 41 WP MM EVA 1945-08-01 06:00:00 TS 24.2125 130.618 main 759 748 O________OPO__ jtwc_wp WP091945 24.2000 130.600 80 1 24.2000 130.600 TC 80 24.2499 130.672 3 70 24.2000 130.600 80 978 180 3 333
1945211N23129 1945 41 WP MM EVA 1945-08-01 09:00:00 TS 24.3562 130.566 main 737 726 P________PPP__ WP091945 24.3500 130.557 75 1 24.3500 130.557 TC 75 24.3750 130.593 3 70 24.3500 130.557 75 979 210 3 340
1945211N23129 1945 41 WP MM EVA 1945-08-01 12:00:00 TS 24.5000 130.500 main 726 715 O________OOO__ jtwc_wp WP091945 24.5000 130.500 70 1 24.5000 130.500 TC 70 24.5000 130.500 4 70 24.5000 130.500 70 980 240 3 324
1945211N23129 1945 41 WP MM EVA 1945-08-01 15:00:00 TS 24.6063 130.365 main 715 704 P________PPP__ WP091945 24.6000 130.357 70 1 24.6000 130.357 TC 70 24.6250 130.389 4 67 24.6000 130.357 70 980 240 3 309
1945211N23129 1945 41 WP MM EVA 1945-08-01 18:00:00 TS 24.7125 130.216 main 705 693 O________OPO__ jtwc_wp WP091945 24.7000 130.200 70 1 24.7000 130.200 TC 70 24.7500 130.265 4 65 24.7000 130.200 70 981 240 3 316
1945211N23129 1945 41 WP MM EVA 1945-08-01 21:00:00 TS 24.8562 130.103 main 683 673 P________PPP__ WP091945 24.8500 130.092 65 1 24.8500 130.092 TC 65 24.8750 130.133 4 62 24.8500 130.092 65 982 300 3 325
1945211N23129 1945 41 WP MM EVA 1945-08-02 00:00:00 TS 25.0000 130.000 main 673 662 O________OOO__ jtwc_wp WP091945 25.0000 130.000 60 0 25.0000 130.000 TC 60 25.0000 130.000 2 60 25.0000 130.000 60 984 360 3 323
1945211N23129 1945 41 WP MM EVA 1945-08-02 03:00:00 TS 25.1001 129.904 main 663 653 P________PPP__ WP091945 25.1000 129.907 60 0 25.1000 129.907 TC 60 25.1004 129.895 2 57 25.1000 129.907 60 985 360 3 317
1945211N23129 1945 41 WP MM EVA 1945-08-02 06:00:00 TS 25.2012 129.797 main 653 643 O________OPO__ jtwc_wp WP091945 25.2000 129.800 60 0 25.2000 129.800 TC 60 25.2047 129.787 2 55 25.2000 129.800 60 987 360 3 317
1945211N23129 1945 41 WP MM EVA 1945-08-02 09:00:00 TS 25.3285 129.669 main 643 625 P________PPP__ WP091945 25.3274 129.672 55 0 25.3274 129.672 TC 55 25.3316 129.660 2 52 25.3274 129.672 55 987 390 4 318
1945211N23129 1945 41 WP MM EVA 1945-08-02 12:00:00 TS 25.5000 129.500 main 625 607 O________OOO__ jtwc_wp WP091945 25.5000 129.500 50 0 25.5000 129.500 TC 50 25.5000 129.500 2 50 25.5000 129.500 50 988 420 5 318
1945211N23129 1945 41 WP MM EVA 1945-08-02 15:00:00 TS 25.7256 129.270 main 607 582 P________PPP__ WP091945 25.7275 129.265 50 0 25.7275 129.265 TC 50 25.7198 129.286 2 50 25.7275 129.265 50 988 360 7 318
1945211N23129 1945 41 WP MM EVA 1945-08-02 18:00:00 TS 25.9957 129.009 main 582 556 O________OPO__ jtwc_wp WP091945 26.0000 129.000 50 0 26.0000 129.000 TC 50 25.9827 129.038 2 50 26.0000 129.000 50 988 300 7 320
1945211N23129 1945 41 WP MM EVA 1945-08-02 21:00:00 TS 26.2779 128.755 main 556 535 P________PPP__ WP091945 26.2775 128.750 50 0 26.2775 128.750 TC 50 26.2792 128.770 2 50 26.2775 128.750 50 988 300 8 323
1945211N23129 1945 41 WP MM EVA 1945-08-03 00:00:00 TS 26.6000 128.500 main 535 513 O________OOO__ jtwc_wp WP091945 26.6000 128.500 50 0 26.6000 128.500 TC 50 26.6000 128.500 2 50 26.6000 128.500 50 989 300 8 325
1945211N23129 1945 41 WP MM EVA 1945-08-03 03:00:00 TS 26.9355 128.244 main 517 484 P________PPP__ WP091945 27.0000 128.250 50 0 27.0000 128.250 TC 50 26.7423 128.228 2 50 27.0000 128.250 50 989 330 8 326
1945211N23129 1945 41 WP MM EVA 1945-08-03 06:00:00 TS 27.2834 127.990 main 484 478 O________OPO__ jtwc_wp WP091945 27.4000 128.000 50 0 27.4000 128.000 TC 50 26.9338 127.960 2 50 27.4000 128.000 50 990 360 7 320
1945211N23129 1945 41 WP MM EVA 1945-08-03 09:00:00 TS 27.4784 127.728 main 478 442 P________PPP__ WP091945 27.5351 127.734 50 0 27.5351 127.734 TC 50 27.3082 127.712 2 50 27.5351 127.734 50 991 330 8 329
1945211N23129 1945 41 WP MM EVA 1945-08-03 12:00:00 TS 28.0000 127.500 main 442 356 O________OOO__ jtwc_wp WP091945 28.0000 127.500 50 0 28.0000 127.500 TC 50 28.0000 127.500 2 50 28.0000 127.500 50 992 300 19 349
1945211N23129 1945 41 WP MM EVA 1945-08-03 15:00:00 TS 29.2928 127.326 main 349 273 P________PPP__ WP091945 29.3203 127.328 50 0 29.3203 127.328 TC 50 29.2104 127.321 2 47 29.3203 127.328 50 993 270 30 355
1945211N23129 1945 41 WP MM EVA 1945-08-03 18:00:00 TS 30.9329 127.195 main 262 100 O________OPO__ jtwc_wp WP091945 31.0000 127.200 50 0 31.0000 127.200 TC 50 30.7314 127.178 2 45 31.0000 127.200 50 994 240 32 356
1945211N23129 1945 41 WP MM EVA 1945-08-03 21:00:00 TS 32.4941 127.076 main 90 9 P________PPP__ WP091945 32.5299 127.078 45 0 32.5299 127.078 TC 45 32.3866 127.071 2 42 32.5299 127.078 45 995 270 31 357
1945211N23129 1945 41 WP MM EVA 1945-08-04 00:00:00 TS 34.0000 127.000 main 45 0 O________OOO__ jtwc_wp WP091945 34.0000 127.000 40 0 34.0000 127.000 TC 40 34.0000 127.000 2 40 34.0000 127.000 40 997 300 29 358
1945211N23129 1945 41 WP MM EVA 1945-08-04 03:00:00 TS 35.3676 126.979 main 0 0 P________PPP__ WP091945 35.3448 126.984 40 0 35.3448 126.984 TC 40 35.4359 126.965 2 40 35.3448 126.984 40 997 300 26 359
1945211N23129 1945 41 WP MM EVA 1945-08-04 06:00:00 TS 36.6279 126.990 main 0 0 O________OPO__ jtwc_wp WP091945 36.6000 127.000 40 0 36.6000 127.000 TC 40 36.7118 126.959 2 40 36.6000 127.000 40 997 300 25 0
1945211N23129 1945 41 WP MM EVA 1945-08-04 09:00:00 TS 37.8281 126.998 main 0 0 P________PPP__ WP091945 37.8100 127.005 40 0 37.8100 127.005 TC 40 37.8821 126.974 2 40 37.8100 127.005 40 997 300 24 0
1945211N23129 1945 41 WP MM EVA 1945-08-04 12:00:00 TS 39.0000 127.000 main 0 O________OOO__ jtwc_wp WP091945 39.0000 127.000 40 0 39.0000 127.000 TC 40 39.0000 127.000 2 40 39.0000 127.000 40 997 300 23 0

デジタル台風データ・検索

IBTrACS Databaseについて

本データベースは、米国NOAAが公開する1842年以降の世界の熱帯低気圧のベストトラックデータアーカイブInternational Best Track Archive for Climate Stewardship (IBTrACS)を、ウェブで閲覧しやすい形式に変換したものです。

最終更新日:2021-10-27